Time;durP1;ratioP1;P1;durP2;ratioP2;P2;SDS_P1;SDS_P2;PMS_P1;PMS_P2;Temp;Humidity;BMP_temperature;BMP_pressure;BME280_temperature;BME280_humidity;BME280_pressure;Samples;Min_cycle;Max_cycle;Signal;HPM_P1;HPM_P2
2023/09/25 00:02:24;;;;;;;3.92;1.63;;;;;;;13.62;69.15;100737.59;6183746;23;20035;-89
2023/09/25 00:04:51;;;;;;;2.75;1.40;;;;;;;13.64;69.18;100737.47;6158296;23;20336;-88
2023/09/25 00:07:18;;;;;;;2.72;1.42;;;;;;;13.62;69.38;100737.59;6159231;23;20018;-90
2023/09/25 00:09:45;;;;;;;2.65;1.42;;;;;;;13.63;69.22;100736.59;6158440;23;20021;-89
2023/09/25 00:12:12;;;;;;;7.10;1.80;;;;;;;13.60;69.56;100739.53;6133932;23;20027;-89
2023/09/25 00:14:39;;;;;;;4.28;1.58;;;;;;;13.61;69.29;100737.69;6182488;23;20341;-89
2023/09/25 00:17:07;;;;;;;2.42;1.48;;;;;;;13.64;69.66;100743.63;6157010;23;20024;-89
2023/09/25 00:19:34;;;;;;;3.08;1.70;;;;;;;13.62;69.56;100737.59;6133626;23;20017;-89
2023/09/25 00:22:01;;;;;;;2.70;1.70;;;;;;;13.60;69.71;100744.03;6182311;23;20403;-89
2023/09/25 00:24:28;;;;;;;2.10;1.63;;;;;;;13.62;69.42;100740.25;6157593;23;20021;-88
2023/09/25 00:26:54;;;;;;;3.63;1.70;;;;;;;13.65;69.28;100742.66;6184424;23;20032;-88
2023/09/25 00:29:21;;;;;;;6.10;2.03;;;;;;;13.58;69.40;100738.81;6160767;23;20052;-88
2023/09/25 00:31:48;;;;;;;2.00;1.80;;;;;;;13.61;69.09;100740.38;6161420;23;20341;-88
2023/09/25 00:34:15;;;;;;;5.18;1.70;;;;;;;13.60;69.32;100741.38;6185575;23;20088;-89
2023/09/25 00:36:44;;;;;;;2.20;1.40;;;;;;;13.57;69.46;100736.31;6162527;23;20016;-88
2023/09/25 00:39:11;;;;;;;4.05;1.50;;;;;;;13.51;69.37;100740.34;6139511;23;20025;-88
2023/09/25 00:41:37;;;;;;;2.92;1.73;;;;;;;13.51;69.38;100740.34;6188308;23;20012;-88
2023/09/25 00:44:05;;;;;;;2.13;1.63;;;;;;;13.48;69.40;100735.25;6161831;23;20463;-89
2023/09/25 00:46:32;;;;;;;2.53;1.67;;;;;;;13.49;69.35;100736.97;6162192;23;20079;-88
2023/09/25 00:48:59;;;;;;;2.92;1.73;;;;;;;13.46;69.39;100731.91;6161608;23;20016;-89
2023/09/25 00:51:26;;;;;;;3.30;1.60;;;;;;;13.43;69.45;100732.13;6161784;23;20155;-88
2023/09/25 00:53:55;;;;;;;4.75;2.05;;;;;;;13.44;69.46;100736.50;6159277;23;20394;-89
2023/09/25 00:56:22;;;;;;;2.80;1.90;;;;;;;13.37;69.60;100730.84;6159901;23;20372;-88
2023/09/25 00:58:49;;;;;;;4.35;2.17;;;;;;;13.36;69.59;100731.84;6160167;23;20451;-88
2023/09/25 01:01:16;;;;;;;3.35;1.83;;;;;;;13.36;69.25;100739.00;6159616;23;20417;-88
2023/09/25 01:03:43;;;;;;;5.43;2.42;;;;;;;13.33;69.27;100741.91;6184682;23;20013;-89
2023/09/25 01:06:10;;;;;;;2.00;1.70;;;;;;;13.33;69.33;100737.44;6158957;23;20152;-88
2023/09/25 01:08:37;;;;;;;2.42;1.88;;;;;;;13.33;69.30;100742.78;6158842;23;20016;-88
2023/09/25 01:11:07;;;;;;;3.28;2.63;;;;;;;13.31;69.09;100739.38;6158510;23;20021;-89
2023/09/25 01:13:34;;;;;;;2.70;1.83;;;;;;;13.36;69.47;100741.66;6161983;23;20051;-87
2023/09/25 01:16:02;;;;;;;2.65;1.60;;;;;;;13.31;69.31;100734.06;6212473;23;20024;-89
2023/09/25 01:18:29;;;;;;;2.60;1.60;;;;;;;13.30;69.36;100736.84;6187382;23;20035;-88
2023/09/25 01:20:56;;;;;;;6.05;1.70;;;;;;;13.29;69.36;100736.00;6187541;23;20357;-88
2023/09/25 01:23:23;;;;;;;3.28;2.00;;;;;;;13.28;69.43;100730.78;6163319;23;20023;-88
2023/09/25 01:25:50;;;;;;;2.95;1.50;;;;;;;13.25;69.33;100726.53;6187498;23;20027;-89
2023/09/25 01:28:17;;;;;;;2.42;1.65;;;;;;;13.23;69.15;100721.34;6161890;23;20074;-88
2023/09/25 01:30:44;;;;;;;2.10;1.60;;;;;;;13.22;69.54;100718.78;6187286;23;20476;-88
2023/09/25 01:33:11;;;;;;;3.75;1.80;;;;;;;13.18;69.83;100718.22;6161644;23;20052;-88
2023/09/25 01:35:38;;;;;;;3.20;1.75;;;;;;;13.23;69.68;100713.34;6136505;23;20027;-89
2023/09/25 01:38:05;;;;;;;5.72;1.73;;;;;;;13.22;69.92;100703.63;6184102;23;20016;-89
2023/09/25 01:40:32;;;;;;;3.03;1.83;;;;;;;13.18;69.63;100707.56;6159810;23;20055;-89
2023/09/25 01:42:59;;;;;;;2.25;2.03;;;;;;;13.21;69.54;100714.44;6158830;23;20021;-88
2023/09/25 01:45:27;;;;;;;1.65;1.42;;;;;;;13.23;69.52;100708.00;6182904;23;20024;-87
2023/09/25 01:47:53;;;;;;;2.45;1.67;;;;;;;13.17;69.60;100705.84;6158579;23;20025;-87
2023/09/25 01:50:25;;;;;;;1.63;1.50;;;;;;;13.11;69.40;100706.38;6134182;23;20054;-88
2023/09/25 01:52:54;;;;;;;3.38;1.55;;;;;;;13.13;69.59;100704.44;6133246;23;20017;-89
2023/09/25 01:55:21;;;;;;;3.38;1.65;;;;;;;13.15;69.29;100701.63;6208407;23;20019;-88
2023/09/25 01:57:48;;;;;;;2.25;1.60;;;;;;;13.13;69.50;100703.59;6158262;23;20079;-88
2023/09/25 02:00:18;;;;;;;4.70;1.50;;;;;;;13.11;69.32;100714.38;6185715;23;20017;-89
2023/09/25 02:02:46;;;;;;;2.45;1.63;;;;;;;13.10;69.38;100711.84;6161750;23;20078;-87
2023/09/25 02:05:13;;;;;;;2.10;1.48;;;;;;;13.04;69.74;100707.88;6161644;23;20410;-88
2023/09/25 02:07:40;;;;;;;2.60;1.27;;;;;;;13.06;69.36;100710.44;6161555;23;20055;-89
2023/09/25 02:10:08;;;;;;;3.45;1.40;;;;;;;13.02;69.15;100707.16;6159265;23;20382;-88
2023/09/25 02:12:35;;;;;;;4.10;1.83;;;;;;;12.97;69.53;100706.69;6184221;23;20018;-88
2023/09/25 02:15:04;;;;;;;3.42;1.23;;;;;;;12.99;69.55;100704.75;6184370;23;20027;-88
2023/09/25 02:17:32;;;;;;;3.15;1.63;;;;;;;12.96;69.39;100697.03;6158737;23;20048;-88
2023/09/25 02:20:16;;;;;;;6.55;1.88;;;;;;;12.95;69.23;100696.19;6158828;23;20024;-88
2023/09/25 02:22:45;;;;;;;3.42;1.83;;;;;;;12.90;69.36;100698.41;6136962;23;20074;-87
2023/09/25 02:25:12;;;;;;;2.90;1.63;;;;;;;12.89;69.29;100691.34;6159170;23;20028;-89
2023/09/25 02:27:39;;;;;;;2.28;1.50;;;;;;;12.87;69.07;100703.13;6183195;23;20013;-88
2023/09/25 02:30:08;;;;;;;2.88;1.30;;;;;;;12.88;68.65;100700.34;6159068;23;20055;-89
2023/09/25 02:32:38;;;;;;;2.35;1.48;;;;;;;12.78;68.34;100694.94;6158217;23;20096;-88
2023/09/25 02:35:07;;;;;;;3.13;1.30;;;;;;;12.82;68.80;100698.16;6157849;23;20024;-88
2023/09/25 02:37:36;;;;;;;2.78;1.45;;;;;;;12.80;68.65;100693.00;6207509;23;20016;-88
2023/09/25 02:40:05;;;;;;;4.35;1.65;;;;;;;12.79;68.55;100691.28;6158411;23;20039;-88
2023/09/25 02:42:32;;;;;;;2.40;1.40;;;;;;;12.82;68.75;100688.38;6209048;23;20088;-88
2023/09/25 02:44:59;;;;;;;3.35;1.50;;;;;;;12.78;68.95;100689.59;6210252;23;20056;-88
2023/09/25 02:47:27;;;;;;;2.58;1.55;;;;;;;12.75;68.75;100692.53;6161004;23;20032;-88
2023/09/25 02:49:54;;;;;;;3.78;1.85;;;;;;;12.72;68.78;100690.13;6159911;23;20075;-88
2023/09/25 02:52:21;;;;;;;4.75;1.88;;;;;;;12.72;68.76;100695.47;6159607;23;20013;-89
2023/09/25 02:54:48;;;;;;;5.70;1.80;;;;;;;12.72;68.71;100692.78;6184823;23;20100;-88
2023/09/25 02:57:15;;;;;;;2.67;1.55;;;;;;;12.67;68.67;100686.13;6159340;23;20016;-88
2023/09/25 02:59:42;;;;;;;1.42;1.30;;;;;;;12.65;68.74;100688.94;6182604;23;20428;-90
2023/09/25 03:02:08;;;;;;;2.15;1.25;;;;;;;12.68;68.83;100691.34;6158706;23;20024;-88
2023/09/25 03:04:37;;;;;;;3.90;1.48;;;;;;;12.64;68.99;100684.56;6158639;23;20024;-88
2023/09/25 03:07:04;;;;;;;3.72;1.48;;;;;;;12.61;68.71;100682.16;6183024;23;20044;-89
2023/09/25 03:09:31;;;;;;;2.00;1.40;;;;;;;12.62;68.75;100689.22;6158232;23;20020;-89
2023/09/25 03:11:57;;;;;;;4.13;1.60;;;;;;;12.61;68.57;100692.81;6157377;23;20092;-89
2023/09/25 03:14:26;;;;;;;4.00;2.03;;;;;;;12.60;68.50;100694.66;6167180;23;20108;-88
2023/09/25 03:16:56;;;;;;;4.53;1.88;;;;;;;12.56;68.83;100695.03;6124126;23;20028;-88
2023/09/25 03:19:23;;;;;;;3.67;1.50;;;;;;;12.56;69.01;100689.69;6181996;23;20079;-89
2023/09/25 03:21:49;;;;;;;3.55;1.80;;;;;;;12.56;68.56;100695.03;6156988;23;20078;-89
2023/09/25 03:24:16;;;;;;;4.45;1.65;;;;;;;12.54;68.83;100686.31;6159106;23;20027;-88
2023/09/25 03:26:43;;;;;;;3.17;1.48;;;;;;;12.56;68.57;100685.22;6159324;23;20345;-88
2023/09/25 03:29:10;;;;;;;3.08;2.00;;;;;;;12.51;69.03;100681.25;6135928;23;20036;-87
2023/09/25 03:31:37;;;;;;;1.90;1.50;;;;;;;12.51;68.77;100690.06;6183423;23;20021;-88
2023/09/25 03:34:04;;;;;;;1.65;1.45;;;;;;;12.52;68.71;100681.13;6182761;23;20587;-88
2023/09/25 03:36:31;;;;;;;3.35;1.55;;;;;;;12.55;68.92;100688.03;6158832;23;20051;-88
2023/09/25 03:38:58;;;;;;;3.03;1.58;;;;;;;12.55;68.96;100678.19;6133661;23;20032;-87
2023/09/25 03:41:25;;;;;;;3.47;1.73;;;;;;;12.54;69.09;100678.31;6156755;23;20090;-87
2023/09/25 03:43:53;;;;;;;2.60;1.48;;;;;;;12.51;69.14;100682.09;6207696;23;20111;-87
2023/09/25 03:46:21;;;;;;;4.03;1.27;;;;;;;12.52;69.30;100678.47;6182394;23;20445;-87
2023/09/25 03:48:49;;;;;;;2.97;1.67;;;;;;;12.51;68.95;100678.59;6181266;23;20047;-87
2023/09/25 03:51:17;;;;;;;2.10;1.60;;;;;;;12.49;69.04;100686.72;6181276;23;20375;-87
2023/09/25 03:53:43;;;;;;;3.25;1.20;;;;;;;12.46;69.08;100678.97;6155891;23;20028;-87
2023/09/25 03:56:10;;;;;;;1.50;1.30;;;;;;;12.50;69.17;100684.91;6131767;23;20023;-86
2023/09/25 03:58:37;;;;;;;3.17;1.58;;;;;;;12.50;68.77;100679.56;6157051;23;20078;-87
2023/09/25 04:01:05;;;;;;;2.38;1.52;;;;;;;12.45;69.14;100682.59;6156572;23;20020;-87
2023/09/25 04:03:32;;;;;;;2.60;1.52;;;;;;;12.40;69.05;100684.81;6156760;23;20028;-88
2023/09/25 04:05:59;;;;;;;3.20;1.60;;;;;;;12.42;69.39;100687.34;6157468;23;20515;-88
2023/09/25 04:08:25;;;;;;;2.10;1.60;;;;;;;12.42;69.44;100685.53;6160154;23;20016;-87
2023/09/25 04:10:52;;;;;;;2.35;1.45;;;;;;;12.33;69.45;100689.78;6185092;23;20024;-92
2023/09/25 04:13:22;;;;;;;5.65;1.67;;;;;;;12.36;69.52;100689.56;6172206;23;20339;-93
2023/09/25 04:15:53;;;;;;;2.13;1.60;;;;;;;12.35;69.40;100695.84;6161197;23;20016;-92
2023/09/25 04:18:20;;;;;;;1.80;1.65;;;;;;;12.30;69.50;100695.38;6144057;23;20387;-87
2023/09/25 04:20:49;;;;;;;2.95;1.38;;;;;;;12.27;69.25;100698.28;6158647;23;20388;-87
2023/09/25 04:23:16;;;;;;;4.63;1.77;;;;;;;12.29;69.09;100699.00;6164302;23;20056;-87
2023/09/25 04:25:43;;;;;;;5.20;2.05;;;;;;;12.26;69.02;100701.06;6156495;23;20040;-87
2023/09/25 04:28:11;;;;;;;1.70;1.35;;;;;;;12.20;68.95;100705.06;6200182;23;20031;-87
2023/09/25 04:30:38;;;;;;;2.13;1.83;;;;;;;12.15;69.06;100701.94;6206729;23;20020;-86
2023/09/25 04:33:06;;;;;;;3.65;1.75;;;;;;;12.13;68.91;100707.38;6155922;23;20017;-87
2023/09/25 04:35:33;;;;;;;4.38;1.90;;;;;;;12.14;69.10;100706.44;6181925;23;20020;-87
2023/09/25 04:38:00;;;;;;;5.05;1.83;;;;;;;12.06;68.69;100706.22;6155948;23;20345;-87
2023/09/25 04:40:30;;;;;;;3.95;1.80;;;;;;;12.05;68.52;100708.97;6155548;23;20025;-86
2023/09/25 04:42:58;;;;;;;2.67;1.75;;;;;;;12.05;68.34;100709.81;6183246;23;20341;-88
2023/09/25 04:45:25;;;;;;;3.83;1.40;;;;;;;12.05;68.35;100707.16;6207017;23;20036;-86
2023/09/25 04:47:52;;;;;;;3.28;1.50;;;;;;;12.01;68.45;100705.72;6182034;23;20020;-88
2023/09/25 04:50:20;;;;;;;3.58;1.70;;;;;;;12.03;68.24;100701.09;6159822;23;20027;-88
2023/09/25 04:52:51;;;;;;;2.95;1.58;;;;;;;11.95;68.46;100698.22;6134398;23;20016;-88
2023/09/25 04:55:18;;;;;;;3.03;1.27;;;;;;;11.94;68.53;100693.88;6158101;23;20016;-88
2023/09/25 04:57:46;;;;;;;2.75;1.73;;;;;;;11.94;68.77;100688.56;6157807;23;20339;-89
2023/09/25 05:00:21;;;;;;;2.42;1.50;;;;;;;12.00;68.80;100692.53;6183212;23;20025;-89
2023/09/25 05:02:49;;;;;;;1.77;1.45;;;;;;;12.00;69.20;100689.88;6135114;23;20017;-89
2023/09/25 05:05:17;;;;;;;2.50;1.67;;;;;;;12.07;68.96;100689.25;6155826;23;20099;-89
2023/09/25 05:07:46;;;;;;;2.72;1.90;;;;;;;12.07;69.44;100694.56;6180790;23;20020;-89
2023/09/25 05:10:14;;;;;;;1.52;1.40;;;;;;;12.12;69.71;100694.22;6179621;23;20020;-89
2023/09/25 05:12:42;;;;;;;3.72;1.45;;;;;;;12.11;69.89;100688.03;6180145;23;20025;-89
2023/09/25 05:15:10;;;;;;;1.95;1.60;;;;;;;12.08;69.69;100690.09;6181415;23;20068;-89
2023/09/25 05:17:38;;;;;;;2.55;1.70;;;;;;;12.09;69.47;100694.47;6207767;23;20016;-89
2023/09/25 05:20:15;;;;;;;5.03;1.90;;;;;;;12.06;69.56;100694.69;6207690;23;20017;-89
2023/09/25 05:22:47;;;;;;;4.68;1.85;;;;;;;12.03;69.65;100687.78;6184144;23;20017;-89
2023/09/25 05:25:15;;;;;;;1.52;1.33;;;;;;;12.04;69.85;100688.66;6157484;23;20115;-89
2023/09/25 05:27:44;;;;;;;2.35;1.45;;;;;;;12.06;69.59;100686.69;6157662;23;20036;-89
2023/09/25 05:30:12;;;;;;;1.75;1.50;;;;;;;12.05;69.69;100679.69;6206067;23;20020;-89
2023/09/25 05:32:41;;;;;;;2.80;1.75;;;;;;;12.00;69.29;100685.38;6182509;23;20024;-88
2023/09/25 05:35:08;;;;;;;2.05;1.73;;;;;;;11.97;69.61;100679.47;6158574;23;20104;-88
2023/09/25 05:37:36;;;;;;;2.28;1.77;;;;;;;12.00;69.62;100681.88;6182053;23;20020;-89
2023/09/25 05:40:05;;;;;;;2.80;1.90;;;;;;;11.99;69.44;100680.22;6182769;23;20449;-90
2023/09/25 05:42:32;;;;;;;2.42;1.90;;;;;;;12.00;69.71;100685.38;6207639;23;20023;-89
2023/09/25 05:44:59;;;;;;;3.50;2.38;;;;;;;12.04;70.03;100686.00;6206831;23;20025;-88
2023/09/25 05:47:26;;;;;;;3.67;2.35;;;;;;;12.06;70.28;100689.38;6157824;23;20017;-88
2023/09/25 05:49:52;;;;;;;3.95;2.13;;;;;;;12.05;70.32;100690.34;6181672;23;20024;-90
2023/09/25 05:52:19;;;;;;;5.93;2.70;;;;;;;12.02;70.96;100685.28;6181971;23;20018;-89
2023/09/25 05:54:46;;;;;;;4.13;2.28;;;;;;;12.07;70.69;100691.06;6181687;23;20044;-89
2023/09/25 05:57:13;;;;;;;3.30;2.13;;;;;;;12.13;70.67;100688.75;6183633;23;20456;-88
2023/09/25 05:59:40;;;;;;;2.70;2.00;;;;;;;12.17;70.71;100692.03;6183803;23;20092;-89
2023/09/25 06:02:07;;;;;;;7.35;2.25;;;;;;;12.18;71.00;100685.72;6157324;23;20024;-88
2023/09/25 06:04:36;;;;;;;3.13;1.90;;;;;;;12.19;70.95;100687.41;6156918;23;20526;-89
2023/09/25 06:07:03;;;;;;;3.65;1.98;;;;;;;12.23;70.64;100685.34;6180739;23;20017;-88
2023/09/25 06:09:31;;;;;;;3.40;2.28;;;;;;;12.22;70.27;100689.81;6155795;23;20048;-88
2023/09/25 06:11:58;;;;;;;3.65;2.20;;;;;;;12.23;69.68;100690.66;6181036;23;20013;-88
2023/09/25 06:14:25;;;;;;;4.60;2.30;;;;;;;12.27;69.75;100689.47;6158058;23;20483;-89
2023/09/25 06:16:54;;;;;;;3.60;2.20;;;;;;;12.28;70.14;100689.31;6182275;23;20070;-88
2023/09/25 06:19:21;;;;;;;4.65;2.00;;;;;;;12.30;70.06;100691.84;6183030;23;20020;-88
2023/09/25 06:21:48;;;;;;;2.20;2.00;;;;;;;12.35;70.04;100690.50;6207687;23;20083;-88
2023/09/25 06:24:15;;;;;;;2.83;1.90;;;;;;;12.38;70.25;100687.59;6182016;23;20028;-88
2023/09/25 06:26:48;;;;;;;5.72;2.28;;;;;;;12.42;70.51;100687.34;6182180;23;20028;-88
2023/09/25 06:29:15;;;;;;;4.07;2.17;;;;;;;12.43;70.61;100686.38;6182851;23;20031;-89
2023/09/25 06:31:42;;;;;;;2.53;2.20;;;;;;;12.48;70.70;100686.84;6156750;23;20016;-88
2023/09/25 06:34:26;;;;;;;4.65;2.55;;;;;;;12.52;70.63;100691.78;6163579;23;20024;-88
2023/09/25 06:36:53;;;;;;;2.33;2.13;;;;;;;12.54;70.93;100694.31;6179903;23;20016;-87
2023/09/25 06:39:21;;;;;;;6.53;2.47;;;;;;;12.57;71.02;100688.75;6181123;23;20020;-88
2023/09/25 06:41:48;;;;;;;3.95;2.20;;;;;;;12.59;70.64;100692.09;6205939;23;20025;-88
2023/09/25 06:44:19;;;;;;;3.20;2.30;;;;;;;12.63;70.34;100688.22;6182601;23;20459;-88
2023/09/25 06:46:46;;;;;;;5.03;2.35;;;;;;;12.66;70.65;100687.13;6182143;23;20031;-89
2023/09/25 06:49:13;;;;;;;7.90;2.58;;;;;;;12.71;70.30;100698.25;6156886;23;20271;-89
2023/09/25 06:51:40;;;;;;;3.50;2.22;;;;;;;12.72;70.58;100692.78;6178352;23;20020;-89
2023/09/25 06:54:08;;;;;;;4.90;2.47;;;;;;;12.73;70.29;100688.31;6156499;23;20021;-88
2023/09/25 06:56:36;;;;;;;2.40;2.20;;;;;;;12.77;70.43;100695.91;6182714;23;20025;-88
2023/09/25 06:59:03;;;;;;;4.63;2.15;;;;;;;12.79;70.84;100696.59;6179793;23;20054;-87
2023/09/25 07:01:30;;;;;;;4.55;2.90;;;;;;;12.82;70.65;100696.38;6181289;23;20033;-88
2023/09/25 07:03:57;;;;;;;4.13;2.55;;;;;;;12.86;70.87;100690.78;6178968;23;20345;-88
2023/09/25 07:06:25;;;;;;;6.90;2.40;;;;;;;12.87;71.14;100682.63;6154813;23;20025;-88
2023/09/25 07:08:52;;;;;;;3.80;2.70;;;;;;;12.92;71.50;100693.75;6180521;23;20095;-88
2023/09/25 07:11:19;;;;;;;4.85;2.92;;;;;;;12.94;71.71;100697.13;6154765;23;20511;-87
2023/09/25 07:13:47;;;;;;;5.68;2.70;;;;;;;12.99;71.81;100697.59;6155183;23;20039;-89
2023/09/25 07:16:14;;;;;;;4.80;2.65;;;;;;;13.01;71.69;100702.81;6177926;23;20025;-88
2023/09/25 07:18:43;;;;;;;4.35;2.78;;;;;;;13.04;71.80;100700.72;6153234;23;20031;-88
2023/09/25 07:21:10;;;;;;;9.27;2.85;;;;;;;13.10;71.82;100712.72;6177485;23;20036;-88
2023/09/25 07:23:37;;;;;;;4.32;2.50;;;;;;;13.13;71.94;100708.94;6154178;23;20029;-88
2023/09/25 07:26:09;;;;;;;6.53;2.63;;;;;;;13.16;72.20;100703.34;6180480;23;20398;-88
2023/09/25 07:28:36;;;;;;;3.50;2.47;;;;;;;13.21;72.29;100703.78;6181401;23;20337;-88
2023/09/25 07:31:05;;;;;;;3.58;2.40;;;;;;;13.22;72.21;100702.78;6156430;23;20377;-90
2023/09/25 07:33:33;;;;;;;6.95;2.67;;;;;;;13.22;71.89;100700.97;6133965;23;20071;-89
2023/09/25 07:36:00;;;;;;;4.03;2.40;;;;;;;13.23;71.94;100694.69;6206117;23;20029;-88
2023/09/25 07:38:31;;;;;;;6.93;2.67;;;;;;;13.29;71.87;100700.50;6155025;23;20372;-89
2023/09/25 07:40:58;;;;;;;3.60;2.70;;;;;;;13.32;71.18;100705.56;6154796;23;20031;-88
2023/09/25 07:43:29;;;;;;;3.47;2.30;;;;;;;13.37;70.79;100711.34;6180074;23;20040;-88
2023/09/25 07:46:00;;;;;;;4.57;2.92;;;;;;;13.38;71.13;100713.88;6203797;23;20029;-88
2023/09/25 07:48:30;;;;;;;3.10;2.58;;;;;;;13.39;70.92;100704.06;6178379;23;20075;-88
2023/09/25 07:50:58;;;;;;;3.90;2.33;;;;;;;13.41;70.90;100700.28;6156359;23;20444;-89
2023/09/25 07:53:25;;;;;;;5.63;2.20;;;;;;;13.45;70.97;100700.84;6205275;23;20020;-89
2023/09/25 07:55:53;;;;;;;3.85;3.20;;;;;;;13.50;70.90;100703.94;6179068;23;20025;-88
2023/09/25 07:58:20;;;;;;;4.30;2.47;;;;;;;13.52;71.43;100709.16;6176739;23;20131;-89
2023/09/25 08:00:47;;;;;;;3.55;2.72;;;;;;;13.55;71.35;100711.56;6177594;23;20024;-88
2023/09/25 08:03:22;;;;;;;4.43;2.75;;;;;;;13.57;71.17;100713.13;6152808;23;20437;-89
2023/09/25 08:05:48;;;;;;;2.38;1.90;;;;;;;13.61;70.94;100703.00;6156836;23;20020;-90
2023/09/25 08:08:15;;;;;;;5.18;2.67;;;;;;;13.65;71.10;100709.78;6156869;23;20034;-90
2023/09/25 08:10:45;;;;;;;4.38;2.55;;;;;;;13.68;70.96;100715.69;6132048;23;21359;-88
2023/09/25 08:13:12;;;;;;;3.83;2.40;;;;;;;13.71;71.09;100713.72;6205868;23;20070;-88
2023/09/25 08:15:42;;;;;;;4.90;2.58;;;;;;;13.74;71.27;100714.31;6206001;23;20043;-89
2023/09/25 08:18:09;;;;;;;5.20;2.85;;;;;;;13.76;71.24;100717.69;6205898;23;20030;-89
2023/09/25 08:20:36;;;;;;;4.75;2.55;;;;;;;13.81;71.18;100730.63;6153276;23;20016;-89
2023/09/25 08:23:03;;;;;;;5.15;2.45;;;;;;;13.83;71.06;100726.84;6156130;23;20512;-88
2023/09/25 08:25:30;;;;;;;4.28;2.22;;;;;;;13.85;71.16;100724.88;6203725;23;20071;-88
2023/09/25 08:27:57;;;;;;;6.07;2.83;;;;;;;13.89;70.88;100722.78;6204432;23;20048;-88
2023/09/25 08:30:24;;;;;;;5.60;2.65;;;;;;;13.92;70.87;100722.53;6202301;23;20024;-88
2023/09/25 08:32:53;;;;;;;3.53;2.38;;;;;;;13.97;70.87;100730.13;6179932;23;20143;-88
2023/09/25 08:35:20;;;;;;;5.70;2.63;;;;;;;14.00;70.73;100724.53;6205228;23;20471;-89
2023/09/25 08:37:47;;;;;;;3.85;2.22;;;;;;;14.05;70.78;100732.97;6153094;23;20040;-87
2023/09/25 08:40:14;;;;;;;6.90;2.50;;;;;;;14.07;71.05;100729.19;6153853;23;20386;-89
2023/09/25 08:42:42;;;;;;;4.53;2.20;;;;;;;14.11;70.94;100727.06;6205898;23;20440;-89
2023/09/25 08:45:09;;;;;;;2.30;2.10;;;;;;;14.15;71.03;100731.19;6180399;23;20558;-89
2023/09/25 08:47:36;;;;;;;4.30;2.40;;;;;;;14.18;70.94;100722.03;6182138;23;20101;-90
2023/09/25 08:50:04;;;;;;;4.95;1.88;;;;;;;14.20;70.49;100720.91;6158647;23;20013;-89
2023/09/25 08:52:31;;;;;;;6.47;2.33;;;;;;;14.26;70.92;100720.34;6158991;23;20119;-88
2023/09/25 08:54:59;;;;;;;4.25;2.50;;;;;;;14.31;70.60;100730.63;6158663;23;20029;-88
2023/09/25 08:57:26;;;;;;;3.38;2.20;;;;;;;14.32;70.54;100719.81;6133508;23;20017;-89
2023/09/25 08:59:53;;;;;;;4.82;2.08;;;;;;;14.37;70.22;100719.38;6180391;23;20052;-89
2023/09/25 09:02:20;;;;;;;2.85;2.28;;;;;;;14.37;70.24;100707.88;6207122;23;20024;-88
2023/09/25 09:04:47;;;;;;;3.42;1.95;;;;;;;14.41;70.11;100706.63;6178931;23;20820;-89
2023/09/25 09:07:14;;;;;;;4.03;2.72;;;;;;;14.44;70.09;100709.00;6181073;23;20119;-89
2023/09/25 09:09:43;;;;;;;5.72;2.72;;;;;;;14.49;70.05;100712.94;6154533;23;20449;-89
2023/09/25 09:12:10;;;;;;;4.55;2.40;;;;;;;14.50;69.61;100709.28;6157600;23;20025;-89
2023/09/25 09:14:42;;;;;;;5.53;2.60;;;;;;;14.53;69.80;100705.53;6180200;23;20044;-90
2023/09/25 09:17:10;;;;;;;5.03;2.42;;;;;;;14.59;69.53;100712.13;6155528;23;20027;-89
2023/09/25 09:19:51;;;;;;;5.78;2.60;;;;;;;14.54;69.70;100707.22;6178453;23;20025;-88
2023/09/25 09:22:18;;;;;;;5.18;2.40;;;;;;;14.58;69.58;100713.09;6129907;23;20024;-89
2023/09/25 09:24:47;;;;;;;2.90;2.33;;;;;;;14.63;69.85;100713.53;6157787;23;20075;-88
2023/09/25 09:27:17;;;;;;;4.47;2.50;;;;;;;14.67;70.03;100718.47;6158233;23;20326;-88
2023/09/25 09:29:45;;;;;;;3.60;2.42;;;;;;;14.71;69.39;100711.84;6183299;23;20406;-89
2023/09/25 09:32:14;;;;;;;5.57;2.50;;;;;;;14.70;69.46;100701.28;6182597;23;20345;-88
2023/09/25 09:34:40;;;;;;;2.88;2.35;;;;;;;14.74;69.66;100702.72;6208078;23;20452;-90
2023/09/25 09:37:10;;;;;;;2.97;2.20;;;;;;;14.77;69.15;100699.75;6182089;23;20571;-88
2023/09/25 09:39:37;;;;;;;4.60;2.38;;;;;;;14.82;69.36;100694.81;6181253;23;20020;-89
2023/09/25 09:42:05;;;;;;;4.25;2.15;;;;;;;14.85;68.88;100694.53;6181616;23;20041;-89
2023/09/25 09:44:32;;;;;;;2.90;2.28;;;;;;;14.88;69.05;100694.28;6181670;23;20124;-89
2023/09/25 09:47:02;;;;;;;4.60;2.05;;;;;;;14.90;69.11;100683.41;6154802;23;20028;-89
2023/09/25 09:49:30;;;;;;;5.05;2.47;;;;;;;14.94;68.85;100683.00;6206479;23;20036;-89
2023/09/25 09:52:00;;;;;;;4.20;2.35;;;;;;;14.97;68.70;100680.03;6180401;23;20448;-88
2023/09/25 09:54:30;;;;;;;3.28;2.33;;;;;;;15.01;69.28;100682.41;6156254;23;20719;-89
2023/09/25 09:56:59;;;;;;;3.67;2.00;;;;;;;15.01;69.24;100677.06;6180651;23;20100;-90
2023/09/25 09:59:26;;;;;;;4.22;2.40;;;;;;;15.07;69.21;100676.50;6154348;23;20032;-89
2023/09/25 10:01:53;;;;;;;6.55;2.55;;;;;;;15.10;68.86;100670.84;6153809;23;20092;-89
2023/09/25 10:04:20;;;;;;;2.53;2.13;;;;;;;15.13;68.64;100671.38;6178263;23;20638;-90
2023/09/25 10:06:58;;;;;;;5.18;2.40;;;;;;;15.13;69.26;100670.56;6180921;23;20027;-89
2023/09/25 10:09:26;;;;;;;2.80;2.10;;;;;;;15.22;68.82;100672.38;6158249;23;20029;-89
2023/09/25 10:11:58;;;;;;;2.42;1.98;;;;;;;15.23;68.68;100673.22;6132628;23;20029;-88
2023/09/25 10:14:26;;;;;;;6.03;2.20;;;;;;;15.26;68.74;100672.91;6159313;23;20017;-88
2023/09/25 10:17:06;;;;;;;3.33;2.22;;;;;;;15.24;68.32;100656.16;6158199;23;20020;-89
2023/09/25 10:19:45;;;;;;;2.70;2.17;;;;;;;15.26;68.61;100662.22;6132283;23;20055;-89
2023/09/25 10:22:15;;;;;;;3.97;2.13;;;;;;;15.35;69.39;100664.84;6156177;23;20082;-89
2023/09/25 10:24:43;;;;;;;6.45;2.65;;;;;;;15.40;68.83;100656.41;6208319;23;20020;-89
2023/09/25 10:27:11;;;;;;;3.53;2.42;;;;;;;15.43;68.31;100656.09;6181565;23;20035;-89
2023/09/25 10:29:38;;;;;;;2.47;2.25;;;;;;;15.45;68.26;100646.09;6180294;23;20087;-89
2023/09/25 10:32:11;;;;;;;3.25;2.35;;;;;;;15.48;67.83;100651.13;6154976;23;20020;-88
2023/09/25 10:34:39;;;;;;;2.80;2.28;;;;;;;15.50;68.86;100643.81;6155491;23;20091;-89
2023/09/25 10:37:06;;;;;;;4.38;2.15;;;;;;;15.53;68.06;100642.69;6180237;23;20079;-90
2023/09/25 10:39:33;;;;;;;2.60;1.85;;;;;;;15.54;68.09;100639.84;6155001;23;20532;-88
2023/09/25 10:42:07;;;;;;;2.85;2.08;;;;;;;15.54;67.63;100637.16;6203123;23;20483;-89
2023/09/25 10:44:36;;;;;;;3.10;2.08;;;;;;;15.60;68.51;100644.59;6177694;23;20032;-90
2023/09/25 10:47:07;;;;;;;4.15;2.22;;;;;;;15.63;68.94;100646.16;6202086;23;20024;-90
2023/09/25 10:49:35;;;;;;;2.15;1.95;;;;;;;15.67;68.21;100641.31;6206978;23;20026;-89
2023/09/25 10:52:03;;;;;;;5.47;2.10;;;;;;;15.63;68.13;100633.59;6182447;23;20388;-89
2023/09/25 10:54:31;;;;;;;3.78;1.95;;;;;;;15.67;67.84;100633.28;6158854;23;20028;-89
2023/09/25 10:56:59;;;;;;;3.35;2.13;;;;;;;15.71;67.80;100632.03;6159097;23;20021;-90
2023/09/25 10:59:26;;;;;;;4.18;1.98;;;;;;;15.73;67.72;100633.59;6182767;23;20326;-89
2023/09/25 11:01:53;;;;;;;7.80;2.22;;;;;;;15.76;66.96;100633.28;6156786;23;20031;-88
2023/09/25 11:04:20;;;;;;;2.75;2.35;;;;;;;15.77;67.02;100629.63;6180747;23;20032;-89
2023/09/25 11:06:47;;;;;;;2.53;2.22;;;;;;;15.80;66.59;100625.81;6204728;23;20027;-89
2023/09/25 11:09:18;;;;;;;2.67;1.77;;;;;;;15.80;65.81;100623.13;6156445;23;20445;-89
2023/09/25 11:11:45;;;;;;;3.22;1.75;;;;;;;15.84;66.81;100630.69;6204229;23;20460;-91
2023/09/25 11:14:13;;;;;;;3.35;1.80;;;;;;;15.86;66.21;100624.34;6155156;23;20016;-89
2023/09/25 11:16:40;;;;;;;3.92;2.10;;;;;;;15.88;66.41;100622.38;6206880;23;20023;-86
2023/09/25 11:19:12;;;;;;;5.72;2.20;;;;;;;15.88;65.67;100617.84;6155134;23;20028;-88
2023/09/25 11:21:39;;;;;;;3.42;1.83;;;;;;;15.93;66.39;100612.88;6178764;23;20048;-88
2023/09/25 11:24:08;;;;;;;2.97;2.22;;;;;;;15.97;66.44;100622.28;6153881;23;20017;-89
2023/09/25 11:26:38;;;;;;;4.40;2.00;;;;;;;16.00;66.27;100619.31;6178970;23;20017;-89
2023/09/25 11:29:06;;;;;;;4.78;1.95;;;;;;;16.04;66.22;100618.00;6130529;23;20017;-89